Time;durP1;ratioP1;P1;durP2;ratioP2;P2;SDS_P1;SDS_P2;PMS_P1;PMS_P2;Temp;Humidity;BMP_temperature;BMP_pressure;BME280_temperature;BME280_humidity;BME280_pressure;Samples;Min_cycle;Max_cycle;Signal;HPM_P1;HPM_P2
2023/02/11 00:01:07;;;;;;;20.80;10.57;;;;;;;-0.36;75.17;147240.75;5063860;28;20021;-65
2023/02/11 00:03:32;;;;;;;17.30;10.18;;;;;;;-0.27;75.13;147262.34;5063858;28;20033;-64
2023/02/11 00:05:59;;;;;;;16.48;10.23;;;;;;;-0.26;74.34;147264.84;5063710;28;20032;-64
2023/02/11 00:08:25;;;;;;;20.33;10.57;;;;;;;-0.33;74.81;147247.06;5063583;28;20030;-65
2023/02/11 00:10:55;;;;;;;18.90;10.40;;;;;;;-0.33;74.23;147247.06;5063725;28;20028;-64
2023/02/11 00:13:22;;;;;;;18.98;10.98;;;;;;;-0.28;75.00;147259.78;5063697;28;20045;-65
2023/02/11 00:15:47;;;;;;;18.40;9.98;;;;;;;-0.28;73.95;147259.78;5063244;28;20039;-65
2023/02/11 00:18:13;;;;;;;18.20;10.23;;;;;;;-0.32;74.36;147249.63;5063768;28;20017;-65
2023/02/11 00:20:39;;;;;;;17.85;10.70;;;;;;;-0.30;74.24;147254.72;5062540;28;20054;-66
2023/02/11 00:23:05;;;;;;;19.40;10.80;;;;;;;-0.27;74.99;147262.34;5043655;28;20036;-65
2023/02/11 00:25:30;;;;;;;17.55;9.48;;;;;;;-0.36;74.74;147240.75;5049176;28;20084;-66
2023/02/11 00:27:56;;;;;;;19.20;9.90;;;;;;;-0.35;74.82;147242.00;5063445;28;20110;-64
2023/02/11 00:30:22;;;;;;;16.65;9.27;;;;;;;-0.49;74.93;147206.44;5051769;28;20028;-65
2023/02/11 00:32:47;;;;;;;16.70;9.40;;;;;;;-0.39;74.27;147233.09;5063258;28;20032;-65
2023/02/11 00:35:13;;;;;;;18.35;9.77;;;;;;;-0.45;74.69;147217.84;5062903;28;20032;-65
2023/02/11 00:37:39;;;;;;;14.02;9.45;;;;;;;-0.43;74.24;147221.66;5062335;28;20074;-65
2023/02/11 00:40:05;;;;;;;17.27;9.77;;;;;;;-0.42;74.51;147224.22;5062302;28;20090;-64
2023/02/11 00:42:30;;;;;;;15.82;9.20;;;;;;;-0.51;74.57;147202.63;5062387;28;20082;-66
2023/02/11 00:44:56;;;;;;;16.33;9.63;;;;;;;-0.57;75.16;147188.63;5062319;28;20041;-66
2023/02/11 00:47:22;;;;;;;15.45;8.55;;;;;;;-0.55;74.44;147192.44;5062825;28;20032;-66
2023/02/11 00:49:47;;;;;;;19.00;9.60;;;;;;;-0.66;75.68;147165.75;5062960;28;20051;-64
2023/02/11 00:52:13;;;;;;;13.90;9.07;;;;;;;-0.71;75.06;147154.31;5063064;28;20033;-65
2023/02/11 00:54:39;;;;;;;16.73;9.02;;;;;;;-0.56;75.01;147191.13;5055657;28;20102;-65
2023/02/11 00:57:05;;;;;;;17.50;9.52;;;;;;;-0.57;74.52;147187.34;5061576;28;20020;-65
2023/02/11 00:59:30;;;;;;;13.63;8.75;;;;;;;-0.69;74.20;147158.13;5062870;28;20025;-65
2023/02/11 01:01:56;;;;;;;16.77;8.90;;;;;;;-0.78;75.45;147136.53;5061683;28;20021;-65
2023/02/11 01:04:22;;;;;;;15.65;8.73;;;;;;;-0.73;75.37;147147.97;5062481;28;20029;-65
2023/02/11 01:06:48;;;;;;;16.05;9.50;;;;;;;-0.75;75.46;147142.91;5062727;28;20078;-64
2023/02/11 01:09:13;;;;;;;14.50;8.57;;;;;;;-0.83;74.76;147122.56;5062763;28;20071;-65
2023/02/11 01:11:39;;;;;;;15.63;8.20;;;;;;;-0.83;74.84;147123.81;5061378;28;20052;-65
2023/02/11 01:14:05;;;;;;;15.38;8.50;;;;;;;-0.75;74.68;147142.91;5062370;28;20060;-65
2023/02/11 01:16:30;;;;;;;12.23;8.45;;;;;;;-0.77;74.52;147139.09;5062242;28;20024;-66
2023/02/11 01:18:57;;;;;;;17.27;9.45;;;;;;;-0.74;74.69;147145.41;5061453;28;20029;-65
2023/02/11 01:21:23;;;;;;;12.77;7.82;;;;;;;-0.78;74.72;147136.53;5055269;28;20029;-65
2023/02/11 01:23:49;;;;;;;18.33;8.88;;;;;;;-0.89;75.21;147109.84;5041327;28;20225;-65
2023/02/11 01:26:15;;;;;;;15.18;8.13;;;;;;;-0.99;74.51;147084.44;5053378;28;20074;-65
2023/02/11 01:28:40;;;;;;;14.25;7.32;;;;;;;-0.94;75.50;147097.16;5057007;28;20098;-64
2023/02/11 01:31:06;;;;;;;13.13;8.75;;;;;;;-0.97;75.42;147089.53;5062142;28;20056;-64
2023/02/11 01:33:31;;;;;;;14.80;7.85;;;;;;;-0.94;75.51;147097.16;5062238;28;20020;-64
2023/02/11 01:36:04;;;;;;;15.25;8.18;;;;;;;-0.94;74.18;147095.84;5062106;28;20024;-65
2023/02/11 01:38:30;;;;;;;13.50;7.03;;;;;;;-0.90;74.99;147107.31;5061941;28;20037;-65
2023/02/11 01:40:59;;;;;;;11.52;7.75;;;;;;;-1.09;74.78;147060.28;5061475;28;20033;-64
2023/02/11 01:43:33;;;;;;;13.23;7.28;;;;;;;-1.07;75.33;147064.09;5061073;28;20040;-64
2023/02/11 01:46:03;;;;;;;15.88;7.40;;;;;;;-1.05;75.17;147070.47;5061124;28;20052;-65
2023/02/11 01:48:38;;;;;;;15.90;7.65;;;;;;;-1.04;74.69;147071.75;5061748;28;20091;-66
2023/02/11 01:51:30;;;;;;;15.30;6.85;;;;;;;-1.18;74.53;147037.47;5061007;28;20037;-67
2023/02/11 01:59:39;;;;;;;10.82;6.72;;;;;;;-1.30;74.56;147006.97;5055234;28;20036;-66
2023/02/11 02:02:10;;;;;;;12.35;6.95;;;;;;;-1.27;74.29;147015.88;5061844;28;20461;-65
2023/02/11 02:04:45;;;;;;;14.82;6.72;;;;;;;-1.17;74.84;147038.72;5061559;28;20020;-66
2023/02/11 02:07:29;;;;;;;11.27;6.45;;;;;;;-1.07;74.00;147064.09;5061876;28;20096;-65
2023/02/11 02:10:02;;;;;;;15.15;7.13;;;;;;;-1.22;73.50;147028.56;5061787;28;20033;-66
2023/02/11 02:12:28;;;;;;;17.63;6.50;;;;;;;-1.02;73.18;147076.81;5061651;28;20020;-66
2023/02/11 02:15:31;;;;;;;11.73;6.63;;;;;;;-0.97;73.98;147089.53;5061815;28;20025;-65
2023/02/11 02:18:32;;;;;;;10.85;6.03;;;;;;;-1.05;73.87;147070.47;5059376;28;20041;-67
2023/02/11 02:21:28;;;;;;;12.75;5.53;;;;;;;-1.11;73.25;147055.22;5033296;28;20025;-66
2023/02/11 02:24:31;;;;;;;11.25;5.55;;;;;;;-1.02;72.80;147076.81;5061676;28;20060;-66
2023/02/11 02:27:03;;;;;;;10.60;5.63;;;;;;;-1.01;72.14;147079.38;5061573;28;20052;-65
2023/02/11 02:30:06;;;;;;;10.10;5.72;;;;;;;-0.91;71.44;147104.78;5060401;28;20045;-65
2023/02/11 02:32:49;;;;;;;8.88;5.38;;;;;;;-0.85;71.44;147118.75;5044270;28;20052;-64
2023/02/11 02:35:29;;;;;;;10.55;4.97;;;;;;;-0.76;71.23;147140.34;5052627;28;20025;-65
2023/02/11 02:38:04;;;;;;;7.32;4.57;;;;;;;-0.76;70.83;147141.59;5050174;28;20067;-65
2023/02/11 02:40:56;;;;;;;11.75;4.97;;;;;;;-0.85;69.96;147118.75;5065310;28;20309;-65
2023/02/11 02:43:24;;;;;;;9.93;5.05;;;;;;;-0.81;70.68;147128.91;5064005;28;20144;-65
2023/02/11 02:45:50;;;;;;;9.38;4.57;;;;;;;-0.67;69.85;147163.22;5047511;28;20256;-65
2023/02/11 02:48:24;;;;;;;10.13;4.78;;;;;;;-0.63;70.05;147173.34;5065363;28;20082;-65
2023/02/11 02:51:05;;;;;;;8.55;4.47;;;;;;;-0.66;70.27;147164.50;5065299;28;20100;-64
2023/02/11 02:53:47;;;;;;;8.77;4.78;;;;;;;-0.63;70.32;147173.34;5064787;28;20206;-64
2023/02/11 02:56:25;;;;;;;8.55;4.53;;;;;;;-0.70;68.89;147155.56;5065249;28;20021;-65
2023/02/11 02:59:03;;;;;;;11.20;3.97;;;;;;;-0.65;69.36;147168.28;5065180;28;20021;-65
2023/02/11 03:01:48;;;;;;;8.27;4.15;;;;;;;-0.72;69.04;147150.50;5064355;28;20047;-65
2023/02/11 03:04:39;;;;;;;9.40;4.18;;;;;;;-0.75;69.62;147142.91;5064922;28;20028;-65
2023/02/11 03:07:15;;;;;;;8.73;4.40;;;;;;;-0.58;69.16;147184.81;5064976;28;20032;-65
2023/02/11 03:10:23;;;;;;;7.93;4.32;;;;;;;-0.67;69.82;147163.22;5064831;28;20099;-65
2023/02/11 03:12:51;;;;;;;11.18;4.03;;;;;;;-0.75;69.12;147144.16;5044999;28;20306;-65
2023/02/11 03:15:20;;;;;;;8.90;4.10;;;;;;;-0.64;69.53;147169.56;5063893;28;20086;-65
2023/02/11 03:17:48;;;;;;;10.85;4.65;;;;;;;-0.60;69.69;147179.72;5064776;28;20024;-64
2023/02/11 03:20:18;;;;;;;8.80;4.28;;;;;;;-0.52;68.83;147200.06;5064619;28;20313;-65
2023/02/11 03:22:50;;;;;;;8.52;3.95;;;;;;;-0.63;69.89;147173.34;5046435;28;20099;-65
2023/02/11 03:25:16;;;;;;;8.18;3.83;;;;;;;-0.67;68.96;147163.22;5046965;28;20021;-66
2023/02/11 03:27:56;;;;;;;6.93;3.65;;;;;;;-0.61;69.67;147178.47;5064773;28;20036;-66
2023/02/11 03:30:31;;;;;;;7.70;3.95;;;;;;;-0.59;69.38;147183.53;5064488;28;20048;-65
2023/02/11 03:33:05;;;;;;;9.07;4.03;;;;;;;-0.66;68.47;147165.75;5062717;28;20081;-65
2023/02/11 03:35:38;;;;;;;7.45;4.15;;;;;;;-0.59;69.27;147183.53;5064327;28;20029;-66
2023/02/11 03:38:31;;;;;;;6.88;3.58;;;;;;;-0.69;69.20;147158.13;5064524;28;20037;-65
2023/02/11 03:40:59;;;;;;;8.93;3.83;;;;;;;-0.66;69.38;147165.75;5064465;28;20276;-65
2023/02/11 03:43:39;;;;;;;8.25;4.38;;;;;;;-0.67;69.38;147161.94;5062974;28;20068;-64
2023/02/11 03:46:06;;;;;;;9.88;4.13;;;;;;;-0.76;69.67;147140.34;5064192;28;20351;-64
2023/02/11 03:48:50;;;;;;;9.93;4.05;;;;;;;-0.74;70.03;147146.69;5062939;28;20047;-65
2023/02/11 03:51:17;;;;;;;10.15;4.70;;;;;;;-0.83;69.91;147123.81;5045670;28;20036;-65
2023/02/11 03:53:45;;;;;;;10.63;4.05;;;;;;;-0.77;70.65;147139.09;5064210;28;20112;-66
2023/02/11 03:56:16;;;;;;;8.63;4.00;;;;;;;-0.84;70.31;147120.00;5064420;28;20055;-64
2023/02/11 03:58:44;;;;;;;11.25;3.97;;;;;;;-1.02;70.18;147075.56;5063788;28;20245;-66
2023/02/11 04:01:10;;;;;;;11.18;3.80;;;;;;;-0.98;70.39;147087.00;5064115;28;20059;-64
2023/02/11 04:03:35;;;;;;;6.80;3.45;;;;;;;-0.78;70.58;147135.28;5050312;28;20041;-65
2023/02/11 04:06:01;;;;;;;9.98;3.80;;;;;;;-0.76;70.55;147140.34;5062076;28;20126;-66
2023/02/11 04:08:27;;;;;;;6.72;3.40;;;;;;;-0.85;70.50;147117.50;5063806;28;20029;-65
2023/02/11 04:10:52;;;;;;;6.70;3.17;;;;;;;-0.85;69.95;147118.75;5063859;28;20036;-65
2023/02/11 04:13:18;;;;;;;14.88;4.15;;;;;;;-0.91;70.45;147104.78;5063732;28;20201;-65
2023/02/11 04:15:43;;;;;;;10.05;3.75;;;;;;;-0.93;70.02;147099.66;5063800;28;20579;-65
2023/02/11 04:18:09;;;;;;;6.18;3.40;;;;;;;-1.02;70.15;147076.81;5063715;28;20036;-64
2023/02/11 04:20:35;;;;;;;8.63;3.35;;;;;;;-0.91;70.45;147104.78;5063212;28;20068;-64
2023/02/11 04:23:00;;;;;;;6.82;3.50;;;;;;;-0.83;70.00;147122.56;5063445;28;20028;-66
2023/02/11 04:25:26;;;;;;;7.28;3.03;;;;;;;-1.01;70.79;147078.06;5061481;28;20029;-65
2023/02/11 04:27:51;;;;;;;10.85;4.03;;;;;;;-0.98;70.37;147087.00;5063554;28;20087;-66
2023/02/11 04:30:17;;;;;;;15.02;3.33;;;;;;;-0.94;70.91;147097.16;5063305;28;20041;-65
2023/02/11 04:32:43;;;;;;;6.38;3.17;;;;;;;-0.95;70.17;147094.59;5063299;28;20206;-65
2023/02/11 04:35:08;;;;;;;8.77;3.20;;;;;;;-1.10;70.66;147057.78;5063167;28;20071;-66
2023/02/11 04:37:34;;;;;;;7.68;3.63;;;;;;;-0.99;70.14;147084.44;5063429;28;20312;-66
2023/02/11 04:40:00;;;;;;;9.15;3.42;;;;;;;-1.08;70.51;147061.59;5063153;28;20028;-65
2023/02/11 04:42:26;;;;;;;6.85;3.40;;;;;;;-1.15;69.97;147043.81;5062965;28;20025;-65
2023/02/11 04:44:51;;;;;;;9.32;3.53;;;;;;;-1.37;71.28;146990.44;5063241;28;20045;-64
2023/02/11 04:47:17;;;;;;;7.47;3.42;;;;;;;-1.40;71.00;146982.84;5060735;28;20048;-64
2023/02/11 04:49:43;;;;;;;7.07;3.42;;;;;;;-1.29;71.26;147010.78;5062887;28;20075;-65
2023/02/11 04:52:08;;;;;;;9.30;3.42;;;;;;;-1.30;70.78;147008.22;5061543;28;20036;-64
2023/02/11 04:54:34;;;;;;;8.48;3.65;;;;;;;-1.19;70.41;147033.66;5061000;28;20057;-65
2023/02/11 04:56:59;;;;;;;6.28;3.33;;;;;;;-1.28;71.82;147013.31;5061178;28;20024;-64
2023/02/11 04:59:25;;;;;;;8.68;3.72;;;;;;;-1.38;71.01;146987.94;5061709;28;20040;-65
2023/02/11 05:01:51;;;;;;;6.82;3.75;;;;;;;-1.31;71.86;147004.41;5060906;28;20071;-66
2023/02/11 05:04:17;;;;;;;5.78;3.20;;;;;;;-1.32;71.25;147003.16;5060690;28;20028;-65
2023/02/11 05:06:42;;;;;;;6.30;3.40;;;;;;;-1.48;72.10;146962.50;5062089;28;20218;-66
2023/02/11 05:09:10;;;;;;;7.63;3.38;;;;;;;-1.42;72.37;146977.78;5062309;28;20029;-65
2023/02/11 05:11:38;;;;;;;9.88;3.38;;;;;;;-1.67;71.75;146916.81;5060945;28;20029;-65
2023/02/11 05:14:05;;;;;;;9.75;4.05;;;;;;;-1.40;72.12;146982.84;5062357;28;20024;-65
2023/02/11 05:16:31;;;;;;;7.85;3.33;;;;;;;-1.46;71.11;146967.59;5062355;28;20309;-65
2023/02/11 05:18:57;;;;;;;11.63;4.18;;;;;;;-1.47;72.01;146966.34;5062519;28;20063;-65
2023/02/11 05:21:22;;;;;;;6.68;3.20;;;;;;;-1.41;71.09;146981.56;5062028;28;20029;-66
2023/02/11 05:23:48;;;;;;;6.97;3.90;;;;;;;-1.44;71.24;146973.97;5062459;28;20033;-65
2023/02/11 05:26:14;;;;;;;8.75;3.50;;;;;;;-1.54;71.85;146947.28;5061978;28;20193;-66
2023/02/11 05:28:40;;;;;;;9.27;3.38;;;;;;;-1.60;71.82;146933.31;5061998;28;20057;-65
2023/02/11 05:31:06;;;;;;;8.82;4.10;;;;;;;-1.59;71.72;146935.88;5062290;28;20028;-66
2023/02/11 05:33:32;;;;;;;7.20;2.65;;;;;;;-1.55;71.91;146946.03;5062090;28;20025;-65
2023/02/11 05:36:02;;;;;;;7.38;3.17;;;;;;;-1.52;71.37;146952.38;5061923;28;20037;-66
2023/02/11 05:38:28;;;;;;;7.25;3.05;;;;;;;-1.41;71.37;146980.28;5061713;28;20045;-65
2023/02/11 05:40:54;;;;;;;7.47;3.60;;;;;;;-1.41;71.63;146980.28;5062420;28;20051;-66
2023/02/11 05:43:20;;;;;;;9.07;3.50;;;;;;;-1.40;71.94;146984.13;5044126;28;20098;-66
2023/02/11 05:45:46;;;;;;;7.28;3.08;;;;;;;-1.41;71.06;146980.28;5062390;28;20446;-65
2023/02/11 05:48:12;;;;;;;10.55;3.28;;;;;;;-1.37;71.60;146990.44;5062020;28;20047;-65
2023/02/11 05:50:37;;;;;;;8.55;3.60;;;;;;;-1.38;71.83;146987.94;5061567;28;20032;-66
2023/02/11 05:53:04;;;;;;;6.75;3.60;;;;;;;-1.41;71.08;146980.28;5059451;28;20029;-65
2023/02/11 05:55:30;;;;;;;7.50;3.08;;;;;;;-1.30;71.17;147008.22;5044690;28;20112;-66
2023/02/11 05:57:56;;;;;;;8.50;3.30;;;;;;;-1.28;71.53;147012.06;5061974;28;20035;-66
2023/02/11 06:00:22;;;;;;;8.45;3.42;;;;;;;-1.34;71.67;146998.09;5061980;28;20025;-64
2023/02/11 06:02:47;;;;;;;12.73;3.88;;;;;;;-1.41;71.08;146980.28;5061848;28;20059;-66
2023/02/11 06:05:13;;;;;;;9.02;3.38;;;;;;;-1.52;71.43;146952.38;5060699;28;20040;-64
2023/02/11 06:07:39;;;;;;;9.10;3.60;;;;;;;-1.44;72.26;146973.97;5060719;28;20349;-66
2023/02/11 06:10:05;;;;;;;5.35;3.47;;;;;;;-1.56;71.01;146944.72;5059883;28;20051;-65
2023/02/11 06:12:30;;;;;;;9.55;3.70;;;;;;;-1.50;72.09;146957.44;5059280;28;20319;-67
2023/02/11 06:14:56;;;;;;;6.05;3.00;;;;;;;-1.51;71.71;146954.91;5062586;28;20071;-66
2023/02/11 06:17:22;;;;;;;7.35;3.25;;;;;;;-1.51;71.66;146954.91;5063861;28;20049;-65
2023/02/11 06:19:48;;;;;;;8.20;3.28;;;;;;;-1.70;72.16;146909.19;5064419;28;20087;-68
2023/02/11 06:22:14;;;;;;;9.13;4.03;;;;;;;-1.46;72.12;146967.59;5062917;28;20033;-65
2023/02/11 06:24:39;;;;;;;6.78;3.50;;;;;;;-1.48;71.12;146962.50;5062929;28;20052;-66
2023/02/11 06:27:05;;;;;;;7.97;3.67;;;;;;;-1.28;71.64;147013.31;5063954;28;20096;-66
2023/02/11 06:29:31;;;;;;;7.82;3.72;;;;;;;-1.46;70.71;146967.59;5064399;28;20213;-65
2023/02/11 06:31:56;;;;;;;5.97;3.45;;;;;;;-1.50;70.76;146957.44;5064488;28;20082;-64
2023/02/11 06:34:22;;;;;;;10.15;3.50;;;;;;;-1.41;71.10;146981.56;5064109;28;20024;-68
2023/02/11 06:36:47;;;;;;;7.97;3.42;;;;;;;-1.30;71.18;147006.97;5064462;28;20047;-67
2023/02/11 06:39:13;;;;;;;8.13;3.90;;;;;;;-1.32;70.18;147003.16;5061754;28;20029;-65
2023/02/11 06:41:39;;;;;;;8.02;3.78;;;;;;;-1.41;71.50;146981.56;5064391;28;20094;-65
2023/02/11 06:44:05;;;;;;;8.18;3.75;;;;;;;-1.26;71.56;147017.13;5064324;28;20194;-64
2023/02/11 06:46:31;;;;;;;8.30;4.00;;;;;;;-1.30;70.54;147008.22;5064013;28;20342;-66
2023/02/11 06:48:56;;;;;;;8.65;4.00;;;;;;;-1.23;71.48;147024.75;5063333;28;20024;-67
2023/02/11 06:51:22;;;;;;;9.88;4.43;;;;;;;-1.32;70.71;147003.16;5062906;28;20245;-67
2023/02/11 06:53:48;;;;;;;10.93;4.20;;;;;;;-1.18;70.85;147037.47;5064230;28;21050;-67
2023/02/11 06:56:16;;;;;;;11.55;5.30;;;;;;;-1.05;71.29;147069.22;5061403;28;20019;-66
2023/02/11 06:58:42;;;;;;;9.82;3.92;;;;;;;-1.17;70.42;147038.72;5063790;28;20028;-67
2023/02/11 07:01:11;;;;;;;7.03;4.57;;;;;;;-1.16;70.90;147042.50;5063977;28;20055;-66
2023/02/11 07:03:39;;;;;;;8.02;4.88;;;;;;;-1.13;70.48;147048.88;5063871;28;20021;-66
2023/02/11 07:06:05;;;;;;;10.55;5.10;;;;;;;-0.83;70.81;147123.81;5064756;28;20051;-66
2023/02/11 07:08:36;;;;;;;10.73;4.93;;;;;;;-0.92;70.21;147102.22;5064469;28;20321;-68
2023/02/11 07:11:08;;;;;;;13.70;5.22;;;;;;;-0.91;70.29;147103.53;5063753;28;20124;-64
2023/02/11 07:13:34;;;;;;;11.90;5.68;;;;;;;-0.95;70.11;147093.34;5063410;28;20044;-69
2023/02/11 07:16:10;;;;;;;10.43;5.25;;;;;;;-1.06;71.39;147066.66;5064707;28;20331;-67
2023/02/11 07:18:36;;;;;;;11.57;5.28;;;;;;;-0.93;71.05;147098.41;5063258;28;20293;-66
2023/02/11 07:21:10;;;;;;;10.32;5.47;;;;;;;-0.80;70.49;147130.16;5059031;28;20037;-66
2023/02/11 07:23:36;;;;;;;9.50;4.63;;;;;;;-0.63;70.12;147172.09;5044551;28;20325;-67
2023/02/11 07:26:03;;;;;;;11.35;5.13;;;;;;;-0.18;68.88;147285.19;5049737;28;20025;-67
2023/02/11 07:28:29;;;;;;;13.63;5.00;;;;;;;-0.07;68.36;147311.91;5064258;28;20088;-66
2023/02/11 07:30:54;;;;;;;11.35;5.28;;;;;;;0.57;66.70;147469.63;5064620;28;20049;-66
2023/02/11 07:33:20;;;;;;;13.65;5.70;;;;;;;0.96;65.23;147565.03;5064323;28;20040;-65
2023/02/11 07:35:45;;;;;;;11.10;5.63;;;;;;;1.53;64.48;147707.53;5064168;28;20047;-66
2023/02/11 07:38:11;;;;;;;9.88;5.32;;;;;;;1.53;62.17;147706.28;5064343;28;20389;-66
2023/02/11 07:40:37;;;;;;;14.38;5.93;;;;;;;1.53;62.72;147707.53;5063814;28;20025;-65
2023/02/11 07:43:02;;;;;;;9.90;5.30;;;;;;;1.52;62.98;147703.72;5062995;28;20070;-66
2023/02/11 07:45:28;;;;;;;10.00;5.43;;;;;;;1.54;62.26;147710.09;5063720;28;20075;-67
2023/02/11 07:47:53;;;;;;;12.30;5.40;;;;;;;1.41;62.35;147677.03;5063684;28;20135;-65
2023/02/11 07:50:19;;;;;;;13.40;6.03;;;;;;;1.62;62.42;147729.19;5063935;28;20041;-68
2023/02/11 07:52:44;;;;;;;13.77;5.82;;;;;;;1.50;62.99;147699.91;5063897;28;20307;-66
2023/02/11 07:55:10;;;;;;;12.07;5.28;;;;;;;2.28;61.48;147890.91;5064207;28;20025;-65
2023/02/11 07:57:36;;;;;;;11.00;5.40;;;;;;;2.33;59.58;147903.69;5051718;28;20040;-66
2023/02/11 08:00:04;;;;;;;8.43;5.15;;;;;;;2.54;59.17;147957.19;5058594;28;20298;-66
2023/02/11 08:02:29;;;;;;;11.95;5.05;;;;;;;2.24;60.10;147883.28;5063660;28;20025;-66
2023/02/11 08:04:55;;;;;;;15.35;5.30;;;;;;;1.22;62.56;147628.66;5063972;28;20036;-67
2023/02/11 08:07:20;;;;;;;9.70;5.47;;;;;;;1.14;63.72;147610.84;5063876;28;20037;-66
2023/02/11 08:09:46;;;;;;;10.82;5.28;;;;;;;1.15;62.93;147613.34;5064058;28;20044;-68
2023/02/11 08:12:12;;;;;;;11.38;5.38;;;;;;;1.17;63.18;147618.47;5063465;28;20029;-66
2023/02/11 08:14:37;;;;;;;8.77;5.47;;;;;;;1.00;63.85;147575.22;5062679;28;20029;-66
2023/02/11 08:17:03;;;;;;;11.80;5.90;;;;;;;1.02;63.77;147580.28;5063430;28;20033;-66
2023/02/11 08:19:29;;;;;;;11.75;6.07;;;;;;;1.06;64.06;147590.47;5063390;28;20021;-65
2023/02/11 08:21:55;;;;;;;12.25;7.47;;;;;;;1.04;64.06;147585.34;5052130;28;20064;-66
2023/02/11 08:24:21;;;;;;;10.75;6.57;;;;;;;1.09;63.99;147596.84;5043649;28;20215;-66
2023/02/11 08:26:47;;;;;;;13.48;6.40;;;;;;;1.11;63.59;147601.91;5055587;28;20383;-65
2023/02/11 08:29:14;;;;;;;10.73;6.25;;;;;;;0.43;64.01;147433.94;5063309;28;20029;-68
2023/02/11 08:31:43;;;;;;;13.70;6.65;;;;;;;0.48;65.44;147447.94;5060143;28;20059;-66
2023/02/11 08:34:10;;;;;;;12.90;6.97;;;;;;;0.25;64.78;147389.47;5063153;28;20032;-65
2023/02/11 08:36:37;;;;;;;14.38;6.70;;;;;;;0.21;65.15;147380.56;5062573;28;20092;-66
2023/02/11 08:39:11;;;;;;;11.30;6.22;;;;;;;0.15;66.17;147365.31;5063168;28;20032;-65
2023/02/11 08:41:37;;;;;;;12.68;6.65;;;;;;;0.31;64.42;147404.72;5063060;28;20067;-66
2023/02/11 08:44:03;;;;;;;13.43;6.38;;;;;;;0.34;64.61;147412.34;5063025;28;20057;-67
2023/02/11 08:46:29;;;;;;;14.13;6.40;;;;;;;0.15;64.81;147365.31;5062636;28;20032;-66
2023/02/11 08:48:54;;;;;;;13.32;7.32;;;;;;;0.30;65.81;147402.16;5062991;28;20029;-65
2023/02/11 08:51:30;;;;;;;14.60;6.20;;;;;;;0.30;65.54;147402.16;5062840;28;20224;-67
2023/02/11 08:53:57;;;;;;;14.27;6.93;;;;;;;0.47;65.65;147444.13;5050893;28;20029;-65
2023/02/11 08:56:23;;;;;;;13.02;6.68;;;;;;;0.62;65.13;147481.06;5051151;28;20067;-65
2023/02/11 08:58:49;;;;;;;13.13;7.40;;;;;;;0.84;64.19;147537.03;5058768;28;20372;-66
2023/02/11 09:01:19;;;;;;;14.27;7.03;;;;;;;0.69;64.15;147498.84;5042831;28;20028;-65
2023/02/11 09:03:45;;;;;;;14.95;6.65;;;;;;;0.39;64.06;147423.81;5062437;28;20059;-67
2023/02/11 09:06:12;;;;;;;12.85;6.60;;;;;;;0.33;64.22;147409.84;5062650;28;20033;-67
2023/02/11 09:08:43;;;;;;;12.82;8.02;;;;;;;-0.06;65.49;147313.16;5062364;28;20323;-64
2023/02/11 09:11:09;;;;;;;12.40;6.70;;;;;;;0.15;65.09;147366.56;5052395;28;20029;-65
2023/02/11 09:13:36;;;;;;;12.63;6.93;;;;;;;0.28;65.38;147397.09;5062429;28;20051;-67
2023/02/11 09:16:04;;;;;;;11.60;6.60;;;;;;;0.25;64.63;147390.72;5062478;28;20074;-67
2023/02/11 09:18:30;;;;;;;12.40;6.72;;;;;;;-0.04;65.63;147318.28;5062361;28;20036;-65
2023/02/11 09:21:04;;;;;;;8.93;6.10;;;;;;;0.08;65.07;147348.75;5058017;28;20048;-65
2023/02/11 09:23:33;;;;;;;11.77;6.10;;;;;;;0.17;65.41;147371.69;5042486;28;20352;-65
2023/02/11 09:26:05;;;;;;;10.20;5.35;;;;;;;0.26;65.17;147393.28;5047050;28;20033;-64
2023/02/11 09:28:30;;;;;;;10.50;6.68;;;;;;;-0.27;65.43;147262.34;5061979;28;20052;-65
2023/02/11 09:30:56;;;;;;;13.85;5.65;;;;;;;-0.23;66.39;147271.22;5062358;28;20032;-64
2023/02/11 09:33:22;;;;;;;11.95;6.47;;;;;;;-0.13;65.47;147295.38;5062145;28;20064;-65
2023/02/11 09:35:47;;;;;;;10.93;5.70;;;;;;;-0.33;66.79;147245.81;5062042;28;20025;-66
2023/02/11 09:38:13;;;;;;;10.48;5.55;;;;;;;-0.42;67.02;147224.22;5062263;28;20152;-64
2023/02/11 09:40:43;;;;;;;13.30;5.82;;;;;;;-0.62;67.56;147175.91;5061704;28;20032;-66
2023/02/11 09:43:25;;;;;;;11.30;5.57;;;;;;;-0.38;67.67;147235.63;5045265;28;20057;-65
2023/02/11 09:45:54;;;;;;;10.35;5.75;;;;;;;-0.27;67.32;147262.34;5041914;28;20096;-64
2023/02/11 09:48:21;;;;;;;11.93;6.30;;;;;;;-0.27;67.32;147261.03;5057303;28;20375;-66
2023/02/11 09:51:02;;;;;;;13.07;7.10;;;;;;;-0.48;67.84;147210.22;5061681;28;20060;-67
2023/02/11 09:53:39;;;;;;;12.23;6.57;;;;;;;-0.34;67.47;147244.56;5061851;28;20051;-66
2023/02/11 09:56:12;;;;;;;11.65;6.38;;;;;;;-0.48;68.42;147210.22;5061514;28;20097;-65
2023/02/11 09:58:42;;;;;;;25.80;15.20;;;;;;;-0.41;69.58;147228.03;5061294;28;20186;-65
2023/02/11 10:01:58;;;;;;;12.68;6.55;;;;;;;-0.53;68.87;147197.50;5061932;28;20051;-64
2023/02/11 10:04:42;;;;;;;12.65;6.60;;;;;;;-0.62;69.69;147175.91;5040605;28;20091;-64
2023/02/11 10:07:30;;;;;;;13.60;6.57;;;;;;;-0.59;69.25;147183.53;5042084;28;20029;-67
2023/02/11 10:10:02;;;;;;;11.20;6.80;;;;;;;-0.47;70.20;147211.47;5041475;28;20038;-65
2023/02/11 10:12:37;;;;;;;11.07;6.60;;;;;;;-0.58;69.97;147186.09;5058904;28;20036;-65
2023/02/11 10:15:28;;;;;;;9.82;6.15;;;;;;;-0.54;70.66;147196.25;5061467;28;20045;-64
2023/02/11 10:18:27;;;;;;;9.38;5.68;;;;;;;-0.49;71.12;147207.69;5061687;28;20040;-65
2023/02/11 10:21:17;;;;;;;9.07;5.30;;;;;;;-0.60;71.08;147181.03;5061774;28;20345;-66
2023/02/11 10:23:47;;;;;;;8.68;5.53;;;;;;;-0.80;71.24;147130.16;5061368;28;20092;-65
2023/02/11 10:26:18;;;;;;;12.35;6.22;;;;;;;-0.62;71.52;147174.66;5061249;28;20067;-64
2023/02/11 10:28:46;;;;;;;12.20;6.68;;;;;;;-0.68;72.35;147160.69;5060911;28;20112;-65
2023/02/11 10:31:18;;;;;;;12.38;6.45;;;;;;;-0.64;71.94;147169.56;5058334;28;20101;-65
2023/02/11 10:33:46;;;;;;;14.23;7.13;;;;;;;-0.66;72.47;147164.50;5059968;28;20029;-65
2023/02/11 10:36:13;;;;;;;12.45;7.35;;;;;;;-0.80;72.66;147131.44;5061275;28;20083;-65
2023/02/11 10:38:39;;;;;;;13.50;6.25;;;;;;;-0.64;72.34;147169.56;5061214;28;20017;-65
2023/02/11 10:41:05;;;;;;;10.02;6.20;;;;;;;-0.48;71.90;147210.22;5061223;28;20393;-65
2023/02/11 10:43:32;;;;;;;13.70;6.97;;;;;;;-0.43;71.65;147221.66;5061032;28;20326;-65
2023/02/11 10:46:01;;;;;;;14.07;6.60;;;;;;;-0.52;72.69;147200.06;5060831;28;20028;-66
2023/02/11 10:48:42;;;;;;;11.35;6.45;;;;;;;-0.63;72.94;147172.09;5060915;28;20054;-65
2023/02/11 10:51:16;;;;;;;12.50;6.57;;;;;;;-0.61;71.80;147178.47;5061216;28;20021;-65
2023/02/11 10:53:43;;;;;;;13.32;6.72;;;;;;;-0.65;72.77;147167.03;5061319;28;20347;-65
2023/02/11 10:56:22;;;;;;;11.75;7.03;;;;;;;-0.63;73.02;147172.09;5061278;28;20322;-67
2023/02/11 10:58:58;;;;;;;15.48;7.35;;;;;;;-0.53;72.41;147197.50;5060502;28;20432;-66
2023/02/11 11:02:06;;;;;;;13.98;7.95;;;;;;;-0.64;72.79;147170.84;5062248;28;20041;-65
2023/02/11 11:04:32;;;;;;;13.68;7.68;;;;;;;-0.36;72.90;147239.44;5048467;28;20041;-64
2023/02/11 11:07:10;;;;;;;15.18;6.78;;;;;;;-0.48;71.61;147208.97;5065012;28;20029;-65
2023/02/11 11:10:01;;;;;;;16.75;7.15;;;;;;;-0.54;72.74;147195.00;5064805;28;20328;-63
2023/02/11 11:12:43;;;;;;;13.13;7.60;;;;;;;-0.50;72.06;147203.88;5064246;28;20024;-65
2023/02/11 11:15:08;;;;;;;11.98;7.50;;;;;;;-0.56;72.59;147189.88;5064497;28;20040;-63
2023/02/11 11:17:34;;;;;;;15.32;7.07;;;;;;;-0.33;72.38;147247.06;5064391;28;20229;-63
2023/02/11 11:20:32;;;;;;;14.25;7.40;;;;;;;-0.33;71.29;147245.81;5064774;28;20025;-64
2023/02/11 11:23:17;;;;;;;15.65;8.02;;;;;;;-0.42;71.34;147224.22;5044815;28;20025;-64
2023/02/11 11:26:04;;;;;;;16.80;7.65;;;;;;;-0.36;71.37;147239.44;5044763;28;20117;-64
2023/02/11 11:28:42;;;;;;;14.75;7.88;;;;;;;-0.44;71.06;147220.41;5063732;28;20104;-66
2023/02/11 11:31:18;;;;;;;13.93;7.78;;;;;;;-0.59;72.26;147183.53;5052040;28;20033;-65
2023/02/11 11:33:46;;;;;;;15.13;9.35;;;;;;;-0.52;71.75;147200.06;5064346;28;20036;-65
2023/02/11 11:36:19;;;;;;;17.48;8.63;;;;;;;-0.42;72.09;147224.22;5064579;28;20028;-66
2023/02/11 11:38:55;;;;;;;14.95;8.20;;;;;;;-0.40;71.16;147230.56;5064216;28;20036;-65
2023/02/11 11:41:30;;;;;;;14.02;8.40;;;;;;;-0.40;71.17;147230.56;5062884;28;20456;-65